sensor_id;sensor_type;location;lat;lon;timestamp;P1;durP1;ratioP1;P2;durP2;ratioP2
49221;SDS011;35047;37.588;-122.048;2022-11-15T00:00:30;3.17;;;0.50;;
49221;SDS011;35047;37.588;-122.048;2022-11-15T00:02:57;0.68;;;0.45;;
49221;SDS011;35047;37.588;-122.048;2022-11-15T00:05:23;0.57;;;0.57;;
49221;SDS011;35047;37.588;-122.048;2022-11-15T00:07:51;0.68;;;0.52;;
49221;SDS011;35047;37.588;-122.048;2022-11-15T00:10:18;2.47;;;0.80;;
49221;SDS011;35047;37.588;-122.048;2022-11-15T00:12:45;0.77;;;0.60;;
49221;SDS011;35047;37.588;-122.048;2022-11-15T00:15:12;1.08;;;0.47;;
49221;SDS011;35047;37.588;-122.048;2022-11-15T00:17:39;2.92;;;1.00;;
49221;SDS011;35047;37.588;-122.048;2022-11-15T00:20:06;0.30;;;0.30;;
49221;SDS011;35047;37.588;-122.048;2022-11-15T00:22:33;1.00;;;0.80;;
49221;SDS011;35047;37.588;-122.048;2022-11-15T00:25:00;0.47;;;0.30;;
49221;SDS011;35047;37.588;-122.048;2022-11-15T00:27:27;0.43;;;0.30;;
49221;SDS011;35047;37.588;-122.048;2022-11-15T00:29:53;0.50;;;0.35;;
49221;SDS011;35047;37.588;-122.048;2022-11-15T00:32:21;1.75;;;0.60;;
49221;SDS011;35047;37.588;-122.048;2022-11-15T00:34:47;6.63;;;0.60;;
49221;SDS011;35047;37.588;-122.048;2022-11-15T00:37:15;1.08;;;0.35;;
49221;SDS011;35047;37.588;-122.048;2022-11-15T00:39:41;1.63;;;0.70;;
49221;SDS011;35047;37.588;-122.048;2022-11-15T00:42:08;0.55;;;0.47;;
49221;SDS011;35047;37.588;-122.048;2022-11-15T00:44:35;0.45;;;0.22;;
49221;SDS011;35047;37.588;-122.048;2022-11-15T00:47:01;0.30;;;0.30;;
49221;SDS011;35047;37.588;-122.048;2022-11-15T00:49:29;0.55;;;0.30;;
49221;SDS011;35047;37.588;-122.048;2022-11-15T00:51:56;0.63;;;0.52;;
49221;SDS011;35047;37.588;-122.048;2022-11-15T00:54:22;0.47;;;0.20;;
49221;SDS011;35047;37.588;-122.048;2022-11-15T00:56:49;1.50;;;0.60;;
49221;SDS011;35047;37.588;-122.048;2022-11-15T00:59:15;0.40;;;0.40;;
49221;SDS011;35047;37.588;-122.048;2022-11-15T01:01:44;0.20;;;0.20;;
49221;SDS011;35047;37.588;-122.048;2022-11-15T01:04:10;0.40;;;0.35;;
49221;SDS011;35047;37.588;-122.048;2022-11-15T01:06:37;0.25;;;0.20;;
49221;SDS011;35047;37.588;-122.048;2022-11-15T01:09:04;0.95;;;0.30;;
49221;SDS011;35047;37.588;-122.048;2022-11-15T01:11:31;0.63;;;0.47;;
49221;SDS011;35047;37.588;-122.048;2022-11-15T01:13:58;0.63;;;0.40;;
49221;SDS011;35047;37.588;-122.048;2022-11-15T01:16:25;1.55;;;0.55;;
49221;SDS011;35047;37.588;-122.048;2022-11-15T01:18:52;0.73;;;0.50;;
49221;SDS011;35047;37.588;-122.048;2022-11-15T01:21:19;0.47;;;0.40;;
49221;SDS011;35047;37.588;-122.048;2022-11-15T01:23:46;0.30;;;0.30;;
49221;SDS011;35047;37.588;-122.048;2022-11-15T01:26:14;0.23;;;0.23;;
49221;SDS011;35047;37.588;-122.048;2022-11-15T01:28:41;0.77;;;0.73;;
49221;SDS011;35047;37.588;-122.048;2022-11-15T01:33:38;1.23;;;0.57;;
49221;SDS011;35047;37.588;-122.048;2022-11-15T01:36:05;1.75;;;0.60;;
49221;SDS011;35047;37.588;-122.048;2022-11-15T01:38:37;0.88;;;0.85;;
49221;SDS011;35047;37.588;-122.048;2022-11-15T01:41:05;1.00;;;0.43;;
49221;SDS011;35047;37.588;-122.048;2022-11-15T01:43:33;13.98;;;0.70;;
49221;SDS011;35047;37.588;-122.048;2022-11-15T01:46:47;1.20;;;0.50;;
49221;SDS011;35047;37.588;-122.048;2022-11-15T01:48:55;1.27;;;0.70;;
49221;SDS011;35047;37.588;-122.048;2022-11-15T01:51:26;0.98;;;0.60;;
49221;SDS011;35047;37.588;-122.048;2022-11-15T01:53:55;1.45;;;0.70;;
49221;SDS011;35047;37.588;-122.048;2022-11-15T01:56:27;1.38;;;0.77;;
49221;SDS011;35047;37.588;-122.048;2022-11-15T01:58:56;2.90;;;0.85;;
49221;SDS011;35047;37.588;-122.048;2022-11-15T02:01:27;0.35;;;0.32;;
49221;SDS011;35047;37.588;-122.048;2022-11-15T02:03:59;1.55;;;1.02;;
49221;SDS011;35047;37.588;-122.048;2022-11-15T02:06:31;2.08;;;0.93;;
49221;SDS011;35047;37.588;-122.048;2022-11-15T02:08:59;2.78;;;1.33;;
49221;SDS011;35047;37.588;-122.048;2022-11-15T02:11:26;1.55;;;1.10;;
49221;SDS011;35047;37.588;-122.048;2022-11-15T02:13:54;1.98;;;1.02;;
49221;SDS011;35047;37.588;-122.048;2022-11-15T02:22:18;2.20;;;0.88;;
49221;SDS011;35047;37.588;-122.048;2022-11-15T02:35:52;1.33;;;0.93;;
49221;SDS011;35047;37.588;-122.048;2022-11-15T02:38:30;0.75;;;0.75;;
49221;SDS011;35047;37.588;-122.048;2022-11-15T02:41:11;2.20;;;1.00;;
49221;SDS011;35047;37.588;-122.048;2022-11-15T02:43:56;1.00;;;0.82;;
49221;SDS011;35047;37.588;-122.048;2022-11-15T02:46:41;1.75;;;0.82;;
49221;SDS011;35047;37.588;-122.048;2022-11-15T02:49:34;2.42;;;0.88;;
49221;SDS011;35047;37.588;-122.048;2022-11-15T02:52:02;1.13;;;0.82;;
49221;SDS011;35047;37.588;-122.048;2022-11-15T02:54:30;2.23;;;1.23;;
49221;SDS011;35047;37.588;-122.048;2022-11-15T02:57:01;1.10;;;0.90;;
49221;SDS011;35047;37.588;-122.048;2022-11-15T03:02:27;1.15;;;1.00;;
49221;SDS011;35047;37.588;-122.048;2022-11-15T03:07:54;0.60;;;0.60;;
49221;SDS011;35047;37.588;-122.048;2022-11-15T03:16:37;3.75;;;1.45;;
49221;SDS011;35047;37.588;-122.048;2022-11-15T03:21:59;1.50;;;1.10;;
49221;SDS011;35047;37.588;-122.048;2022-11-15T03:24:30;3.58;;;1.10;;
49221;SDS011;35047;37.588;-122.048;2022-11-15T03:27:02;1.70;;;1.05;;
49221;SDS011;35047;37.588;-122.048;2022-11-15T03:29:39;0.90;;;0.90;;
49221;SDS011;35047;37.588;-122.048;2022-11-15T03:32:11;1.00;;;0.90;;
49221;SDS011;35047;37.588;-122.048;2022-11-15T03:38:11;2.80;;;1.45;;
49221;SDS011;35047;37.588;-122.048;2022-11-15T03:40:38;1.10;;;0.85;;
49221;SDS011;35047;37.588;-122.048;2022-11-15T03:43:24;1.33;;;1.00;;
49221;SDS011;35047;37.588;-122.048;2022-11-15T03:46:10;1.25;;;0.93;;
49221;SDS011;35047;37.588;-122.048;2022-11-15T03:49:04;2.55;;;1.10;;
49221;SDS011;35047;37.588;-122.048;2022-11-15T03:51:37;9.13;;;2.05;;
49221;SDS011;35047;37.588;-122.048;2022-11-15T03:54:04;1.88;;;1.25;;
49221;SDS011;35047;37.588;-122.048;2022-11-15T03:56:31;2.50;;;1.58;;
49221;SDS011;35047;37.588;-122.048;2022-11-15T03:58:58;2.13;;;1.02;;
49221;SDS011;35047;37.588;-122.048;2022-11-15T04:01:25;1.57;;;1.20;;
49221;SDS011;35047;37.588;-122.048;2022-11-15T04:03:51;3.45;;;2.30;;
49221;SDS011;35047;37.588;-122.048;2022-11-15T04:06:18;2.13;;;1.55;;
49221;SDS011;35047;37.588;-122.048;2022-11-15T04:08:45;1.70;;;1.30;;
49221;SDS011;35047;37.588;-122.048;2022-11-15T04:11:12;2.13;;;1.70;;
49221;SDS011;35047;37.588;-122.048;2022-11-15T04:13:38;4.13;;;1.90;;
49221;SDS011;35047;37.588;-122.048;2022-11-15T04:16:05;3.28;;;2.33;;
49221;SDS011;35047;37.588;-122.048;2022-11-15T04:18:32;13.10;;;1.73;;
49221;SDS011;35047;37.588;-122.048;2022-11-15T04:20:59;2.63;;;2.43;;
49221;SDS011;35047;37.588;-122.048;2022-11-15T04:23:43;5.80;;;2.05;;
49221;SDS011;35047;37.588;-122.048;2022-11-15T04:26:29;2.88;;;2.38;;
49221;SDS011;35047;37.588;-122.048;2022-11-15T04:28:56;1.98;;;1.80;;
49221;SDS011;35047;37.588;-122.048;2022-11-15T04:31:41;2.15;;;1.58;;
49221;SDS011;35047;37.588;-122.048;2022-11-15T04:34:09;5.20;;;2.03;;
49221;SDS011;35047;37.588;-122.048;2022-11-15T04:36:35;2.90;;;2.13;;
49221;SDS011;35047;37.588;-122.048;2022-11-15T04:39:20;3.25;;;2.47;;
49221;SDS011;35047;37.588;-122.048;2022-11-15T04:41:47;2.95;;;1.60;;
49221;SDS011;35047;37.588;-122.048;2022-11-15T04:44:16;2.83;;;2.33;;
49221;SDS011;35047;37.588;-122.048;2022-11-15T04:46:43;2.53;;;2.15;;
49221;SDS011;35047;37.588;-122.048;2022-11-15T04:49:09;3.35;;;2.65;;
49221;SDS011;35047;37.588;-122.048;2022-11-15T04:51:37;5.57;;;2.85;;
49221;SDS011;35047;37.588;-122.048;2022-11-15T04:54:03;4.43;;;2.30;;
49221;SDS011;35047;37.588;-122.048;2022-11-15T04:56:30;2.00;;;1.75;;
49221;SDS011;35047;37.588;-122.048;2022-11-15T04:58:56;3.65;;;2.55;;
49221;SDS011;35047;37.588;-122.048;2022-11-15T05:01:23;1.90;;;1.80;;
49221;SDS011;35047;37.588;-122.048;2022-11-15T05:03:50;8.77;;;2.85;;
49221;SDS011;35047;37.588;-122.048;2022-11-15T05:06:36;1.85;;;1.65;;
49221;SDS011;35047;37.588;-122.048;2022-11-15T05:09:04;3.85;;;2.67;;
49221;SDS011;35047;37.588;-122.048;2022-11-15T05:11:30;3.92;;;2.90;;
49221;SDS011;35047;37.588;-122.048;2022-11-15T05:13:58;3.00;;;2.45;;
49221;SDS011;35047;37.588;-122.048;2022-11-15T05:16:25;4.33;;;2.70;;
49221;SDS011;35047;37.588;-122.048;2022-11-15T05:18:54;2.92;;;2.13;;
49221;SDS011;35047;37.588;-122.048;2022-11-15T05:21:22;2.20;;;1.63;;
49221;SDS011;35047;37.588;-122.048;2022-11-15T05:23:48;1.42;;;1.33;;
49221;SDS011;35047;37.588;-122.048;2022-11-15T05:26:16;1.58;;;1.48;;
49221;SDS011;35047;37.588;-122.048;2022-11-15T05:28:43;4.38;;;1.60;;
49221;SDS011;35047;37.588;-122.048;2022-11-15T05:31:13;1.88;;;1.30;;
49221;SDS011;35047;37.588;-122.048;2022-11-15T05:33:40;3.28;;;2.03;;
49221;SDS011;35047;37.588;-122.048;2022-11-15T05:36:12;5.95;;;2.25;;
49221;SDS011;35047;37.588;-122.048;2022-11-15T05:38:47;2.45;;;1.33;;
49221;SDS011;35047;37.588;-122.048;2022-11-15T05:41:15;3.25;;;1.85;;
49221;SDS011;35047;37.588;-122.048;2022-11-15T05:43:45;5.13;;;1.55;;
49221;SDS011;35047;37.588;-122.048;2022-11-15T05:46:15;2.22;;;1.90;;
49221;SDS011;35047;37.588;-122.048;2022-11-15T05:48:43;2.60;;;1.80;;
49221;SDS011;35047;37.588;-122.048;2022-11-15T05:51:13;1.60;;;1.40;;
49221;SDS011;35047;37.588;-122.048;2022-11-15T05:53:41;3.15;;;2.00;;
49221;SDS011;35047;37.588;-122.048;2022-11-15T05:56:08;2.97;;;2.20;;
49221;SDS011;35047;37.588;-122.048;2022-11-15T05:58:36;4.30;;;2.03;;
49221;SDS011;35047;37.588;-122.048;2022-11-15T06:01:03;3.08;;;1.98;;
49221;SDS011;35047;37.588;-122.048;2022-11-15T06:03:30;1.15;;;1.05;;
49221;SDS011;35047;37.588;-122.048;2022-11-15T06:05:56;3.15;;;1.63;;
49221;SDS011;35047;37.588;-122.048;2022-11-15T06:08:23;2.53;;;2.10;;
49221;SDS011;35047;37.588;-122.048;2022-11-15T06:10:50;2.00;;;1.85;;
49221;SDS011;35047;37.588;-122.048;2022-11-15T06:13:16;4.63;;;2.13;;
49221;SDS011;35047;37.588;-122.048;2022-11-15T06:15:44;5.25;;;2.72;;
49221;SDS011;35047;37.588;-122.048;2022-11-15T06:18:11;2.63;;;2.27;;
49221;SDS011;35047;37.588;-122.048;2022-11-15T06:20:38;4.82;;;2.83;;
49221;SDS011;35047;37.588;-122.048;2022-11-15T06:23:05;2.42;;;2.00;;
49221;SDS011;35047;37.588;-122.048;2022-11-15T06:25:32;3.63;;;1.90;;
49221;SDS011;35047;37.588;-122.048;2022-11-15T06:27:59;3.88;;;2.53;;
49221;SDS011;35047;37.588;-122.048;2022-11-15T06:30:26;3.22;;;2.08;;
49221;SDS011;35047;37.588;-122.048;2022-11-15T06:33:03;4.55;;;2.75;;
49221;SDS011;35047;37.588;-122.048;2022-11-15T06:35:32;4.72;;;3.10;;
49221;SDS011;35047;37.588;-122.048;2022-11-15T06:38:08;2.55;;;1.88;;
49221;SDS011;35047;37.588;-122.048;2022-11-15T06:40:37;2.80;;;2.17;;
49221;SDS011;35047;37.588;-122.048;2022-11-15T06:43:05;1.85;;;1.75;;
49221;SDS011;35047;37.588;-122.048;2022-11-15T06:45:33;2.83;;;1.42;;
49221;SDS011;35047;37.588;-122.048;2022-11-15T06:48:00;2.80;;;1.52;;
49221;SDS011;35047;37.588;-122.048;2022-11-15T06:50:27;2.45;;;1.98;;
49221;SDS011;35047;37.588;-122.048;2022-11-15T06:52:54;5.93;;;2.08;;
49221;SDS011;35047;37.588;-122.048;2022-11-15T06:55:20;1.73;;;1.52;;
49221;SDS011;35047;37.588;-122.048;2022-11-15T06:57:50;1.92;;;1.48;;
49221;SDS011;35047;37.588;-122.048;2022-11-15T07:00:18;4.43;;;1.73;;
49221;SDS011;35047;37.588;-122.048;2022-11-15T07:02:46;2.90;;;2.13;;
49221;SDS011;35047;37.588;-122.048;2022-11-15T07:05:14;6.22;;;1.92;;
49221;SDS011;35047;37.588;-122.048;2022-11-15T07:07:41;8.02;;;2.55;;
49221;SDS011;35047;37.588;-122.048;2022-11-15T07:10:08;2.25;;;1.27;;
49221;SDS011;35047;37.588;-122.048;2022-11-15T07:15:03;2.63;;;1.77;;
49221;SDS011;35047;37.588;-122.048;2022-11-15T07:17:31;2.97;;;1.63;;
49221;SDS011;35047;37.588;-122.048;2022-11-15T07:19:58;2.03;;;1.75;;
49221;SDS011;35047;37.588;-122.048;2022-11-15T07:22:25;2.15;;;1.92;;
49221;SDS011;35047;37.588;-122.048;2022-11-15T07:24:52;2.08;;;1.77;;
49221;SDS011;35047;37.588;-122.048;2022-11-15T07:27:19;3.30;;;2.05;;
49221;SDS011;35047;37.588;-122.048;2022-11-15T07:29:45;4.47;;;2.20;;
49221;SDS011;35047;37.588;-122.048;2022-11-15T07:32:12;0.85;;;0.85;;
49221;SDS011;35047;37.588;-122.048;2022-11-15T07:34:39;1.52;;;1.33;;
49221;SDS011;35047;37.588;-122.048;2022-11-15T07:37:05;3.47;;;1.98;;
49221;SDS011;35047;37.588;-122.048;2022-11-15T07:39:32;4.18;;;3.08;;
49221;SDS011;35047;37.588;-122.048;2022-11-15T07:41:59;2.47;;;1.80;;
49221;SDS011;35047;37.588;-122.048;2022-11-15T07:44:44;3.38;;;2.05;;
49221;SDS011;35047;37.588;-122.048;2022-11-15T07:47:12;6.68;;;3.47;;
49221;SDS011;35047;37.588;-122.048;2022-11-15T07:49:38;3.03;;;1.88;;
49221;SDS011;35047;37.588;-122.048;2022-11-15T07:52:05;3.22;;;2.45;;
49221;SDS011;35047;37.588;-122.048;2022-11-15T07:54:32;2.50;;;1.30;;
49221;SDS011;35047;37.588;-122.048;2022-11-15T07:56:59;2.92;;;1.45;;
49221;SDS011;35047;37.588;-122.048;2022-11-15T07:59:25;2.55;;;1.67;;
49221;SDS011;35047;37.588;-122.048;2022-11-15T08:01:52;2.13;;;1.50;;
49221;SDS011;35047;37.588;-122.048;2022-11-15T08:04:19;2.33;;;1.48;;
49221;SDS011;35047;37.588;-122.048;2022-11-15T08:06:45;5.45;;;2.00;;
49221;SDS011;35047;37.588;-122.048;2022-11-15T08:09:12;4.07;;;2.38;;
49221;SDS011;35047;37.588;-122.048;2022-11-15T08:11:39;4.93;;;1.70;;
49221;SDS011;35047;37.588;-122.048;2022-11-15T08:14:05;3.72;;;1.63;;
49221;SDS011;35047;37.588;-122.048;2022-11-15T08:16:32;2.17;;;1.73;;
49221;SDS011;35047;37.588;-122.048;2022-11-15T08:18:59;2.45;;;2.13;;
49221;SDS011;35047;37.588;-122.048;2022-11-15T08:21:25;2.15;;;1.65;;
49221;SDS011;35047;37.588;-122.048;2022-11-15T08:23:52;1.85;;;1.65;;
49221;SDS011;35047;37.588;-122.048;2022-11-15T08:26:19;5.57;;;2.55;;
49221;SDS011;35047;37.588;-122.048;2022-11-15T08:28:46;1.67;;;1.55;;
49221;SDS011;35047;37.588;-122.048;2022-11-15T08:31:13;5.13;;;2.05;;
49221;SDS011;35047;37.588;-122.048;2022-11-15T08:33:42;1.05;;;0.90;;
49221;SDS011;35047;37.588;-122.048;2022-11-15T08:36:14;2.72;;;1.48;;
49221;SDS011;35047;37.588;-122.048;2022-11-15T08:38:43;2.33;;;1.90;;
49221;SDS011;35047;37.588;-122.048;2022-11-15T08:41:12;1.65;;;1.55;;
49221;SDS011;35047;37.588;-122.048;2022-11-15T08:43:45;2.00;;;1.65;;
49221;SDS011;35047;37.588;-122.048;2022-11-15T08:46:12;1.98;;;1.45;;
49221;SDS011;35047;37.588;-122.048;2022-11-15T08:48:39;4.75;;;1.33;;
49221;SDS011;35047;37.588;-122.048;2022-11-15T08:51:06;8.63;;;1.50;;
49221;SDS011;35047;37.588;-122.048;2022-11-15T08:53:33;1.75;;;1.65;;
49221;SDS011;35047;37.588;-122.048;2022-11-15T08:56:00;3.45;;;2.40;;
49221;SDS011;35047;37.588;-122.048;2022-11-15T09:00:54;1.33;;;1.23;;
49221;SDS011;35047;37.588;-122.048;2022-11-15T09:03:20;1.85;;;1.70;;
49221;SDS011;35047;37.588;-122.048;2022-11-15T09:05:48;2.85;;;2.05;;
49221;SDS011;35047;37.588;-122.048;2022-11-15T09:08:19;4.70;;;2.30;;
49221;SDS011;35047;37.588;-122.048;2022-11-15T09:10:45;3.25;;;1.90;;
49221;SDS011;35047;37.588;-122.048;2022-11-15T09:13:12;3.75;;;2.33;;
49221;SDS011;35047;37.588;-122.048;2022-11-15T09:15:39;4.13;;;2.08;;
49221;SDS011;35047;37.588;-122.048;2022-11-15T09:18:06;2.53;;;1.92;;
49221;SDS011;35047;37.588;-122.048;2022-11-15T09:20:33;3.90;;;2.53;;
49221;SDS011;35047;37.588;-122.048;2022-11-15T09:23:01;2.47;;;2.17;;
49221;SDS011;35047;37.588;-122.048;2022-11-15T09:25:30;2.03;;;1.85;;
49221;SDS011;35047;37.588;-122.048;2022-11-15T09:27:57;2.80;;;2.50;;
49221;SDS011;35047;37.588;-122.048;2022-11-15T09:30:25;2.83;;;1.77;;
49221;SDS011;35047;37.588;-122.048;2022-11-15T09:32:53;2.92;;;2.67;;
49221;SDS011;35047;37.588;-122.048;2022-11-15T09:35:20;2.05;;;1.85;;
49221;SDS011;35047;37.588;-122.048;2022-11-15T09:37:47;2.42;;;1.85;;
49221;SDS011;35047;37.588;-122.048;2022-11-15T09:40:14;4.78;;;1.83;;
49221;SDS011;35047;37.588;-122.048;2022-11-15T09:42:49;7.82;;;2.08;;
49221;SDS011;35047;37.588;-122.048;2022-11-15T09:45:20;4.32;;;2.60;;
49221;SDS011;35047;37.588;-122.048;2022-11-15T09:47:56;4.63;;;2.33;;
49221;SDS011;35047;37.588;-122.048;2022-11-15T09:50:50;7.90;;;2.58;;
49221;SDS011;35047;37.588;-122.048;2022-11-15T09:53:29;2.42;;;2.22;;
49221;SDS011;35047;37.588;-122.048;2022-11-15T09:56:18;2.70;;;1.55;;
49221;SDS011;35047;37.588;-122.048;2022-11-15T10:04:20;2.72;;;2.35;;
49221;SDS011;35047;37.588;-122.048;2022-11-15T10:07:01;8.23;;;2.00;;
49221;SDS011;35047;37.588;-122.048;2022-11-15T10:09:54;2.22;;;2.03;;
49221;SDS011;35047;37.588;-122.048;2022-11-15T10:12:30;3.25;;;2.17;;
49221;SDS011;35047;37.588;-122.048;2022-11-15T10:15:01;2.08;;;1.88;;
49221;SDS011;35047;37.588;-122.048;2022-11-15T10:20:29;2.42;;;1.55;;
49221;SDS011;35047;37.588;-122.048;2022-11-15T10:23:05;4.50;;;2.53;;
49221;SDS011;35047;37.588;-122.048;2022-11-15T10:25:36;2.33;;;2.05;;
49221;SDS011;35047;37.588;-122.048;2022-11-15T10:30:44;1.70;;;1.60;;
49221;SDS011;35047;37.588;-122.048;2022-11-15T10:41:15;2.08;;;1.88;;
49221;SDS011;35047;37.588;-122.048;2022-11-15T10:43:43;1.80;;;1.65;;
49221;SDS011;35047;37.588;-122.048;2022-11-15T10:46:20;1.70;;;1.60;;
49221;SDS011;35047;37.588;-122.048;2022-11-15T10:48:48;2.45;;;2.22;;
49221;SDS011;35047;37.588;-122.048;2022-11-15T10:51:26;3.05;;;2.08;;
49221;SDS011;35047;37.588;-122.048;2022-11-15T10:53:56;5.25;;;2.92;;
49221;SDS011;35047;37.588;-122.048;2022-11-15T10:56:25;2.50;;;2.03;;
49221;SDS011;35047;37.588;-122.048;2022-11-15T10:58:54;5.30;;;2.65;;
49221;SDS011;35047;37.588;-122.048;2022-11-15T11:01:24;1.88;;;1.70;;
49221;SDS011;35047;37.588;-122.048;2022-11-15T11:04:05;3.17;;;2.13;;
49221;SDS011;35047;37.588;-122.048;2022-11-15T11:06:54;4.32;;;2.15;;
49221;SDS011;35047;37.588;-122.048;2022-11-15T11:11:54;1.55;;;1.40;;
49221;SDS011;35047;37.588;-122.048;2022-11-15T11:14:23;5.65;;;1.98;;
49221;SDS011;35047;37.588;-122.048;2022-11-15T11:17:16;1.92;;;1.67;;
49221;SDS011;35047;37.588;-122.048;2022-11-15T11:20:17;4.37;;;1.83;;
49221;SDS011;35047;37.588;-122.048;2022-11-15T11:23:15;1.23;;;1.13;;
49221;SDS011;35047;37.588;-122.048;2022-11-15T11:26:15;1.65;;;1.30;;
49221;SDS011;35047;37.588;-122.048;2022-11-15T11:39:45;1.40;;;1.30;;
49221;SDS011;35047;37.588;-122.048;2022-11-15T11:42:26;1.48;;;1.38;;
49221;SDS011;35047;37.588;-122.048;2022-11-15T11:50:37;1.95;;;1.85;;
49221;SDS011;35047;37.588;-122.048;2022-11-15T11:53:17;1.35;;;1.20;;
49221;SDS011;35047;37.588;-122.048;2022-11-15T11:55:53;1.40;;;1.30;;
49221;SDS011;35047;37.588;-122.048;2022-11-15T12:00:56;2.70;;;2.05;;
49221;SDS011;35047;37.588;-122.048;2022-11-15T12:03:48;8.38;;;1.48;;
49221;SDS011;35047;37.588;-122.048;2022-11-15T12:06:36;1.60;;;1.25;;
49221;SDS011;35047;37.588;-122.048;2022-11-15T12:14:32;3.08;;;1.30;;
49221;SDS011;35047;37.588;-122.048;2022-11-15T12:17:10;2.05;;;1.35;;
49221;SDS011;35047;37.588;-122.048;2022-11-15T12:25:32;8.70;;;1.42;;
49221;SDS011;35047;37.588;-122.048;2022-11-15T12:27:46;2.03;;;1.77;;
49221;SDS011;35047;37.588;-122.048;2022-11-15T12:30:31;1.98;;;1.45;;
49221;SDS011;35047;37.588;-122.048;2022-11-15T12:35:58;6.70;;;1.77;;
49221;SDS011;35047;37.588;-122.048;2022-11-15T12:41:32;1.85;;;0.98;;
49221;SDS011;35047;37.588;-122.048;2022-11-15T12:44:04;0.95;;;0.77;;
49221;SDS011;35047;37.588;-122.048;2022-11-15T12:52:03;1.42;;;1.33;;
49221;SDS011;35047;37.588;-122.048;2022-11-15T12:59:50;1.38;;;0.90;;
49221;SDS011;35047;37.588;-122.048;2022-11-15T13:02:36;4.40;;;2.00;;
49221;SDS011;35047;37.588;-122.048;2022-11-15T13:10:52;2.78;;;1.75;;
49221;SDS011;35047;37.588;-122.048;2022-11-15T13:18:37;3.25;;;1.73;;
49221;SDS011;35047;37.588;-122.048;2022-11-15T13:21:18;1.15;;;1.05;;
49221;SDS011;35047;37.588;-122.048;2022-11-15T13:24:14;1.90;;;1.65;;
49221;SDS011;35047;37.588;-122.048;2022-11-15T13:26:42;5.20;;;1.70;;
49221;SDS011;35047;37.588;-122.048;2022-11-15T13:29:16;3.50;;;1.70;;
49221;SDS011;35047;37.588;-122.048;2022-11-15T13:31:44;1.40;;;1.30;;
49221;SDS011;35047;37.588;-122.048;2022-11-15T13:36:53;2.63;;;2.03;;
49221;SDS011;35047;37.588;-122.048;2022-11-15T13:39:25;2.45;;;1.73;;
49221;SDS011;35047;37.588;-122.048;2022-11-15T13:41:57;2.78;;;1.52;;
49221;SDS011;35047;37.588;-122.048;2022-11-15T13:47:03;0.85;;;0.85;;
49221;SDS011;35047;37.588;-122.048;2022-11-15T13:49:39;2.58;;;1.42;;
49221;SDS011;35047;37.588;-122.048;2022-11-15T13:52:13;0.65;;;0.65;;
49221;SDS011;35047;37.588;-122.048;2022-11-15T13:54:59;0.60;;;0.60;;
49221;SDS011;35047;37.588;-122.048;2022-11-15T14:00:29;2.03;;;1.83;;
49221;SDS011;35047;37.588;-122.048;2022-11-15T14:03:18;1.08;;;1.02;;
49221;SDS011;35047;37.588;-122.048;2022-11-15T14:08:37;1.27;;;1.15;;
49221;SDS011;35047;37.588;-122.048;2022-11-15T14:11:08;2.70;;;1.88;;
49221;SDS011;35047;37.588;-122.048;2022-11-15T14:13:38;1.55;;;1.45;;
49221;SDS011;35047;37.588;-122.048;2022-11-15T14:16:15;1.30;;;1.20;;
49221;SDS011;35047;37.588;-122.048;2022-11-15T14:18:49;3.78;;;1.95;;
49221;SDS011;35047;37.588;-122.048;2022-11-15T14:21:18;1.63;;;1.52;;
49221;SDS011;35047;37.588;-122.048;2022-11-15T14:26:29;4.03;;;1.77;;
49221;SDS011;35047;37.588;-122.048;2022-11-15T14:29:21;1.30;;;1.20;;
49221;SDS011;35047;37.588;-122.048;2022-11-15T14:31:54;2.00;;;1.05;;
49221;SDS011;35047;37.588;-122.048;2022-11-15T14:34:42;2.55;;;1.70;;
49221;SDS011;35047;37.588;-122.048;2022-11-15T14:37:23;1.67;;;1.40;;
49221;SDS011;35047;37.588;-122.048;2022-11-15T14:39:55;4.57;;;1.75;;
49221;SDS011;35047;37.588;-122.048;2022-11-15T14:42:23;2.53;;;1.92;;
49221;SDS011;35047;37.588;-122.048;2022-11-15T14:44:51;1.38;;;1.27;;
49221;SDS011;35047;37.588;-122.048;2022-11-15T14:47:18;2.17;;;1.58;;
49221;SDS011;35047;37.588;-122.048;2022-11-15T14:49:45;2.00;;;1.38;;
49221;SDS011;35047;37.588;-122.048;2022-11-15T14:52:33;5.60;;;2.13;;
49221;SDS011;35047;37.588;-122.048;2022-11-15T14:55:00;1.23;;;1.05;;
49221;SDS011;35047;37.588;-122.048;2022-11-15T14:57:29;1.52;;;1.42;;
49221;SDS011;35047;37.588;-122.048;2022-11-15T14:59:56;6.88;;;2.17;;
49221;SDS011;35047;37.588;-122.048;2022-11-15T15:02:23;2.72;;;1.35;;
49221;SDS011;35047;37.588;-122.048;2022-11-15T15:04:52;2.10;;;1.67;;
49221;SDS011;35047;37.588;-122.048;2022-11-15T15:07:19;1.73;;;1.57;;
49221;SDS011;35047;37.588;-122.048;2022-11-15T15:09:46;1.40;;;1.27;;
49221;SDS011;35047;37.588;-122.048;2022-11-15T15:12:20;1.75;;;1.65;;
49221;SDS011;35047;37.588;-122.048;2022-11-15T15:14:49;3.38;;;1.63;;
49221;SDS011;35047;37.588;-122.048;2022-11-15T15:17:16;1.85;;;1.60;;
49221;SDS011;35047;37.588;-122.048;2022-11-15T15:19:43;2.47;;;2.20;;
49221;SDS011;35047;37.588;-122.048;2022-11-15T15:22:12;2.15;;;1.85;;
49221;SDS011;35047;37.588;-122.048;2022-11-15T15:24:41;0.70;;;0.70;;
49221;SDS011;35047;37.588;-122.048;2022-11-15T15:27:12;3.95;;;2.10;;
49221;SDS011;35047;37.588;-122.048;2022-11-15T15:32:06;1.60;;;1.50;;
49221;SDS011;35047;37.588;-122.048;2022-11-15T15:34:33;4.78;;;1.73;;
49221;SDS011;35047;37.588;-122.048;2022-11-15T15:37:19;4.32;;;1.60;;
49221;SDS011;35047;37.588;-122.048;2022-11-15T15:42:18;1.13;;;1.02;;
49221;SDS011;35047;37.588;-122.048;2022-11-15T15:44:45;2.00;;;1.55;;
49221;SDS011;35047;37.588;-122.048;2022-11-15T15:47:14;1.98;;;1.77;;
49221;SDS011;35047;37.588;-122.048;2022-11-15T15:49:45;2.90;;;2.00;;
49221;SDS011;35047;37.588;-122.048;2022-11-15T15:52:13;3.08;;;1.92;;
49221;SDS011;35047;37.588;-122.048;2022-11-15T15:54:40;1.48;;;1.30;;
49221;SDS011;35047;37.588;-122.048;2022-11-15T15:57:07;8.93;;;1.92;;
49221;SDS011;35047;37.588;-122.048;2022-11-15T15:59:37;4.53;;;1.83;;
49221;SDS011;35047;37.588;-122.048;2022-11-15T16:02:04;1.50;;;1.40;;
49221;SDS011;35047;37.588;-122.048;2022-11-15T16:04:30;2.22;;;1.98;;
49221;SDS011;35047;37.588;-122.048;2022-11-15T16:07:00;1.55;;;1.45;;
49221;SDS011;35047;37.588;-122.048;2022-11-15T16:09:29;3.97;;;2.63;;
49221;SDS011;35047;37.588;-122.048;2022-11-15T16:12:14;3.65;;;2.10;;
49221;SDS011;35047;37.588;-122.048;2022-11-15T16:14:42;2.08;;;1.85;;
49221;SDS011;35047;37.588;-122.048;2022-11-15T16:17:11;3.67;;;2.20;;
49221;SDS011;35047;37.588;-122.048;2022-11-15T16:19:45;4.32;;;1.83;;
49221;SDS011;35047;37.588;-122.048;2022-11-15T16:22:11;3.65;;;1.73;;
49221;SDS011;35047;37.588;-122.048;2022-11-15T16:24:38;1.70;;;1.30;;
49221;SDS011;35047;37.588;-122.048;2022-11-15T16:27:05;2.95;;;2.40;;
49221;SDS011;35047;37.588;-122.048;2022-11-15T16:29:36;1.75;;;1.65;;
49221;SDS011;35047;37.588;-122.048;2022-11-15T16:32:03;2.90;;;1.70;;
49221;SDS011;35047;37.588;-122.048;2022-11-15T16:34:29;3.05;;;1.73;;
49221;SDS011;35047;37.588;-122.048;2022-11-15T16:36:56;3.20;;;1.95;;
49221;SDS011;35047;37.588;-122.048;2022-11-15T16:39:22;2.63;;;1.88;;
49221;SDS011;35047;37.588;-122.048;2022-11-15T16:41:50;2.88;;;2.45;;
49221;SDS011;35047;37.588;-122.048;2022-11-15T16:44:16;5.05;;;2.45;;
49221;SDS011;35047;37.588;-122.048;2022-11-15T16:46:43;2.88;;;1.98;;
49221;SDS011;35047;37.588;-122.048;2022-11-15T16:49:16;2.58;;;2.17;;